Time;durP1;ratioP1;P1;durP2;ratioP2;P2;SDS_P1;SDS_P2;PMS_P1;PMS_P2;Temp;Humidity;BMP_temperature;BMP_pressure;BME280_temperature;BME280_humidity;BME280_pressure;Samples;Min_cycle;Max_cycle;Signal;HPM_P1;HPM_P2
2021/05/23 00:02:30;;;;;;;12.17;6.97;;;;;9.70;100457.00;;;;10540183;28;20226;-76
2021/05/23 00:07:37;;;;;;;10.37;6.23;;;;;9.70;100459.00;;;;10545762;28;20220;-76
2021/05/23 00:12:39;;;;;;;11.73;6.90;;;;;9.60;100451.00;;;;10505826;28;20247;-76
2021/05/23 00:17:41;;;;;;;8.73;6.70;;;;;9.50;100458.00;;;;10523050;28;20193;-76
2021/05/23 00:22:43;;;;;;;8.90;6.23;;;;;9.30;100460.00;;;;10505544;28;20193;-76
2021/05/23 00:27:46;;;;;;;9.20;6.40;;;;;9.20;100458.00;;;;10532235;28;20287;-76
2021/05/23 00:32:49;;;;;;;16.37;7.53;;;;;9.20;100473.00;;;;10546947;28;20199;-76
2021/05/23 00:37:51;;;;;;;12.53;8.33;;;;;9.20;100465.00;;;;10530271;28;20666;-76
2021/05/23 00:42:53;;;;;;;12.70;9.37;;;;;9.20;100467.00;;;;10546766;28;20874;-76
2021/05/23 00:47:55;;;;;;;20.13;8.90;;;;;9.30;100457.00;;;;10530179;28;20524;-76
2021/05/23 00:53:00;;;;;;;13.40;10.20;;;;;9.30;100462.00;;;;10530181;28;20192;-76
2021/05/23 00:58:03;;;;;;;12.93;9.83;;;;;9.30;100473.00;;;;10504488;28;20201;-76
2021/05/23 01:03:34;;;;;;;15.00;10.23;;;;;9.30;100470.00;;;;10540232;28;20311;-79
2021/05/23 01:08:37;;;;;;;19.03;9.90;;;;;9.40;100477.00;;;;10533196;28;20212;-79
2021/05/23 01:13:58;;;;;;;21.53;10.80;;;;;9.50;100479.00;;;;10543070;28;20234;-79
2021/05/23 01:19:23;;;;;;;14.40;10.50;;;;;9.50;100478.00;;;;10542436;28;20250;-79
2021/05/23 01:24:40;;;;;;;19.37;11.03;;;;;9.60;100490.00;;;;10535243;28;20208;-79
2021/05/23 01:29:42;;;;;;;19.30;10.00;;;;;9.60;100491.00;;;;10585799;28;20693;-79
2021/05/23 01:34:44;;;;;;;20.40;11.20;;;;;9.60;100495.00;;;;10551138;28;20188;-78
2021/05/23 01:39:45;;;;;;;18.63;10.73;;;;;9.60;100490.00;;;;10550311;28;20204;-79
2021/05/23 01:44:47;;;;;;;18.93;9.27;;;;;9.60;100494.00;;;;10584002;28;20238;-79
2021/05/23 01:49:49;;;;;;;17.73;9.50;;;;;9.60;100491.00;;;;10566888;28;20245;-79
2021/05/23 01:55:06;;;;;;;19.23;9.00;;;;;9.50;100498.00;;;;10562428;28;20226;-79
2021/05/23 02:00:09;;;;;;;15.10;8.67;;;;;9.50;100507.00;;;;10550797;28;20213;-79
2021/05/23 02:05:12;;;;;;;12.93;7.63;;;;;9.50;100501.00;;;;10550075;28;20220;-79
2021/05/23 02:10:17;;;;;;;14.07;8.00;;;;;9.50;100504.00;;;;10541816;28;20620;-79
2021/05/23 02:15:20;;;;;;;12.70;7.67;;;;;9.50;100513.00;;;;10532841;28;20196;-79
2021/05/23 02:20:27;;;;;;;14.77;6.73;;;;;9.50;100513.00;;;;10549299;28;20204;-80
2021/05/23 02:25:30;;;;;;;16.60;7.27;;;;;9.50;100507.00;;;;10556612;28;20212;-79
2021/05/23 02:30:37;;;;;;;16.43;7.27;;;;;9.50;100519.00;;;;10536831;28;20200;-79
2021/05/23 02:35:42;;;;;;;11.60;5.67;;;;;9.40;100522.00;;;;10516052;28;20266;-79
2021/05/23 02:40:47;;;;;;;14.90;6.10;;;;;9.40;100518.00;;;;10515186;28;20722;-79
2021/05/23 02:45:49;;;;;;;13.63;5.80;;;;;9.40;100530.00;;;;10541989;28;20675;-79
2021/05/23 02:50:52;;;;;;;12.33;5.13;;;;;9.30;100535.00;;;;10590828;28;20252;-79
2021/05/23 02:55:54;;;;;;;11.37;3.87;;;;;9.20;100545.00;;;;10535914;28;20242;-79
2021/05/23 03:00:56;;;;;;;11.07;4.63;;;;;9.10;100541.00;;;;10514386;28;20195;-78
2021/05/23 03:05:58;;;;;;;16.67;5.03;;;;;9.10;100550.00;;;;10525718;28;20686;-78
2021/05/23 03:11:00;;;;;;;10.73;4.80;;;;;9.00;100551.00;;;;10590968;28;20513;-79
2021/05/23 03:16:02;;;;;;;11.17;5.10;;;;;9.00;100553.00;;;;10573930;28;20192;-79
2021/05/23 03:21:04;;;;;;;14.90;5.80;;;;;9.00;100571.00;;;;10515224;28;20189;-78
2021/05/23 03:26:06;;;;;;;16.33;6.00;;;;;9.00;100569.00;;;;10554365;28;20212;-79
2021/05/23 03:31:08;;;;;;;15.50;5.87;;;;;8.90;100574.00;;;;10549535;28;20193;-78
2021/05/23 03:36:10;;;;;;;15.47;5.67;;;;;8.90;100581.00;;;;10530583;28;20214;-78
2021/05/23 03:41:13;;;;;;;17.23;5.83;;;;;8.80;100581.00;;;;10545737;28;20201;-78
2021/05/23 03:46:14;;;;;;;14.27;5.67;;;;;8.70;100595.00;;;;10544873;28;20226;-78
2021/05/23 03:51:16;;;;;;;13.87;4.90;;;;;8.60;100600.00;;;;10587345;28;20192;-79
2021/05/23 03:56:18;;;;;;;12.93;5.03;;;;;8.50;100608.00;;;;10529247;28;20205;-78
2021/05/23 04:01:20;;;;;;;15.73;5.30;;;;;8.40;100611.00;;;;10512322;28;20192;-79
2021/05/23 04:06:22;;;;;;;12.73;4.70;;;;;8.30;100617.00;;;;10527770;28;20641;-78
2021/05/23 04:11:34;;;;;;;8.73;4.20;;;;;8.20;100612.00;;;;10496390;28;20185;-78
2021/05/23 04:16:35;;;;;;;15.50;4.53;;;;;8.20;100617.00;;;;10513338;28;20753;-78
2021/05/23 04:21:37;;;;;;;17.10;3.87;;;;;8.10;100618.00;;;;10570820;28;20199;-79
2021/05/23 04:26:39;;;;;;;11.87;3.97;;;;;8.10;100634.00;;;;10544593;28;20208;-79
2021/05/23 04:31:41;;;;;;;15.47;4.17;;;;;8.30;100641.00;;;;10527753;28;20204;-79
2021/05/23 04:36:43;;;;;;;8.73;3.77;;;;;8.40;100653.00;;;;10524930;28;20197;-79
2021/05/23 04:41:45;;;;;;;12.80;3.43;;;;;8.40;100659.00;;;;10527347;28;20234;-78
2021/05/23 04:46:47;;;;;;;10.40;4.70;;;;;8.50;100667.00;;;;10527726;28;20213;-79
2021/05/23 04:51:49;;;;;;;9.60;2.83;;;;;8.60;100676.00;;;;10510219;28;20196;-78
2021/05/23 04:56:51;;;;;;;11.47;3.93;;;;;9.10;100674.00;;;;10526824;28;20201;-79
2021/05/23 05:01:52;;;;;;;10.87;2.93;;;;;9.20;100675.00;;;;10527825;28;20215;-79
2021/05/23 05:06:55;;;;;;;11.27;2.90;;;;;9.30;100693.00;;;;10549761;28;20848;-79
2021/05/23 05:11:56;;;;;;;11.07;2.90;;;;;9.50;100703.00;;;;10526164;28;20254;-79
2021/05/23 05:16:58;;;;;;;11.63;3.83;;;;;9.70;100725.00;;;;10493049;28;20193;-79
2021/05/23 05:22:01;;;;;;;11.07;2.87;;;;;9.90;100720.00;;;;10510186;28;20242;-80
2021/05/23 05:27:03;;;;;;;7.53;2.60;;;;;10.10;100733.00;;;;10523867;28;20208;-80
2021/05/23 05:32:05;;;;;;;10.90;2.63;;;;;10.50;100741.00;;;;10545707;28;20207;-80
2021/05/23 05:37:07;;;;;;;7.43;2.33;;;;;10.80;100759.00;;;;10558277;28;20643;-80
2021/05/23 05:42:09;;;;;;;8.40;3.03;;;;;11.30;100759.00;;;;10543654;28;20208;-80
2021/05/23 05:47:11;;;;;;;9.20;2.30;;;;;11.70;100760.00;;;;10549771;28;20209;-79
2021/05/23 05:52:13;;;;;;;10.00;2.00;;;;;12.00;100772.00;;;;10516559;28;20197;-77
2021/05/23 05:57:14;;;;;;;8.47;2.37;;;;;12.20;100770.00;;;;10532473;28;20199;-77
2021/05/23 06:02:19;;;;;;;14.30;2.60;;;;;12.40;100775.00;;;;10543504;28;20220;-78
2021/05/23 06:07:20;;;;;;;8.60;2.37;;;;;12.50;100784.00;;;;10532766;28;20847;-79
2021/05/23 06:12:22;;;;;;;9.87;2.43;;;;;12.80;100797.00;;;;10534007;28;20185;-79
2021/05/23 06:17:24;;;;;;;10.30;2.03;;;;;12.90;100797.00;;;;10554338;28;20250;-79
2021/05/23 06:22:27;;;;;;;8.60;1.93;;;;;13.30;100796.00;;;;10533215;28;20196;-80
2021/05/23 06:27:28;;;;;;;7.63;2.27;;;;;13.70;100802.00;;;;10515968;28;20220;-79
2021/05/23 06:32:31;;;;;;;7.57;2.07;;;;;14.00;100803.00;;;;10551497;27;20204;-79
2021/05/23 06:37:33;;;;;;;5.67;1.90;;;;;14.20;100802.00;;;;10531922;28;20184;-79
2021/05/23 06:42:35;;;;;;;8.37;2.27;;;;;14.20;100794.00;;;;10541898;28;20291;-79
2021/05/23 06:47:37;;;;;;;7.60;2.53;;;;;14.50;100801.00;;;;10546211;28;20227;-78
2021/05/23 06:52:39;;;;;;;9.17;2.67;;;;;14.70;100790.00;;;;10540905;28;20189;-79
2021/05/23 06:57:41;;;;;;;8.33;2.17;;;;;15.10;100782.00;;;;10542023;28;20242;-79
2021/05/23 07:02:44;;;;;;;6.63;1.70;;;;;15.30;100762.00;;;;10534025;28;20193;-79
2021/05/23 07:07:47;;;;;;;4.50;1.70;;;;;14.80;100784.00;;;;10519254;28;20771;-79
2021/05/23 07:12:49;;;;;;;5.10;1.73;;;;;15.20;100782.00;;;;10533442;27;20224;-79
2021/05/23 07:17:53;;;;;;;7.80;1.90;;;;;15.10;100771.00;;;;10515642;28;20192;-79
2021/05/23 07:22:55;;;;;;;9.90;3.10;;;;;15.80;100749.00;;;;10518256;28;20196;-79
2021/05/23 07:27:56;;;;;;;4.47;1.67;;;;;16.30;100710.00;;;;10531040;28;20200;-79
2021/05/23 07:32:58;;;;;;;4.83;1.63;;;;;17.00;100685.00;;;;10554224;28;20192;-79
2021/05/23 07:38:02;;;;;;;7.20;1.83;;;;;17.00;100673.00;;;;10541877;28;20543;-79
2021/05/23 07:43:05;;;;;;;3.73;1.50;;;;;17.50;100663.00;;;;10526969;28;20201;-79
2021/05/23 07:48:07;;;;;;;5.20;1.38;;;;;18.20;100652.00;;;;10533288;28;20253;-80
2021/05/23 07:53:08;;;;;;;10.10;1.92;;;;;17.70;100679.00;;;;10516456;28;20210;-77
2021/05/23 07:58:10;;;;;;;4.43;1.15;;;;;16.70;100676.00;;;;10544753;28;20184;-80
2021/05/23 08:03:12;;;;;;;8.67;1.60;;;;;16.40;100672.00;;;;10520995;28;20200;-80
2021/05/23 08:08:14;;;;;;;6.90;1.70;;;;;17.20;100657.00;;;;10526375;28;20228;-77
2021/05/23 08:13:16;;;;;;;6.33;1.67;;;;;17.60;100671.00;;;;10511866;28;20196;-80
2021/05/23 08:18:21;;;;;;;5.67;1.63;;;;;16.20;100694.00;;;;10520253;28;20192;-79
2021/05/23 08:23:25;;;;;;;7.17;1.63;;;;;15.60;100696.00;;;;10545222;28;20196;-79
2021/05/23 08:28:30;;;;;;;4.87;1.50;;;;;17.20;100695.00;;;;10541383;28;20208;-79
2021/05/23 08:33:32;;;;;;;5.57;2.00;;;;;18.00;100709.00;;;;10534681;28;20212;-80
2021/05/23 08:38:34;;;;;;;4.20;1.35;;;;;18.50;100716.00;;;;10509278;28;20193;-77
2021/05/23 08:43:36;;;;;;;6.32;1.70;;;;;16.90;100733.00;;;;10500905;28;20706;-77
2021/05/23 08:48:39;;;;;;;4.73;1.47;;;;;15.50;100767.00;;;;10535382;28;20209;-80
2021/05/23 08:53:48;;;;;;;4.73;1.63;;;;;17.20;100773.00;;;;10555349;28;20192;-80
2021/05/23 08:58:49;;;;;;;5.83;1.47;;;;;16.40;100771.00;;;;10527034;28;20651;-78
2021/05/23 09:03:59;;;;;;;5.40;1.73;;;;;17.20;100780.00;;;;10527884;28;20590;-78
2021/05/23 09:09:06;;;;;;;3.63;1.25;;;;;18.80;100777.00;;;;10500262;28;20207;-78
2021/05/23 09:14:07;;;;;;;10.68;1.73;;;;;20.60;100787.00;;;;10534517;28;20192;-78
2021/05/23 09:19:09;;;;;;;3.88;1.48;;;;;20.60;100787.00;;;;10535854;28;20196;-78
2021/05/23 09:24:11;;;;;;;3.85;1.42;;;;;19.10;100797.00;;;;10535549;28;20216;-78
2021/05/23 09:29:19;;;;;;;4.50;1.27;;;;;18.20;100801.00;;;;10513140;28;20203;-79
2021/05/23 09:34:23;;;;;;;7.00;1.40;;;;;19.80;100800.00;;;;10542401;28;20660;-78
2021/05/23 09:39:35;;;;;;;4.55;1.48;;;;;19.30;100819.00;;;;10531118;28;20188;-79
2021/05/23 09:44:38;;;;;;;5.32;1.67;;;;;17.30;100808.00;;;;10523131;28;20204;-78
2021/05/23 09:49:42;;;;;;;6.10;1.53;;;;;16.60;100825.00;;;;10516710;28;20201;-78
2021/05/23 09:54:48;;;;;;;3.73;1.20;;;;;16.30;100833.00;;;;10529755;28;20188;-79
2021/05/23 10:00:09;;;;;;;2.42;1.20;;;;;17.90;100827.00;;;;10522221;28;20204;-79
2021/05/23 10:05:12;;;;;;;4.60;1.02;;;;;20.90;100833.00;;;;10508134;28;20216;-79
2021/05/23 10:10:15;;;;;;;5.22;1.40;;;;;21.60;100822.00;;;;10520545;28;20210;-78
2021/05/23 10:15:17;;;;;;;5.10;1.23;;;;;22.60;100830.00;;;;10535254;28;20191;-79
2021/05/23 10:20:31;;;;;;;4.82;1.50;;;;;22.50;100820.00;;;;10523324;28;20260;-79
2021/05/23 10:25:34;;;;;;;3.70;1.08;;;;;23.40;100832.00;;;;10524894;28;20540;-80
2021/05/23 10:30:49;;;;;;;3.13;1.10;;;;;22.40;100850.00;;;;10530329;28;20196;-80
2021/05/23 10:35:53;;;;;;;6.97;1.65;;;;;20.90;100855.00;;;;10540740;28;20267;-80
2021/05/23 10:41:01;;;;;;;2.97;1.33;;;;;19.90;100852.00;;;;10529902;28;20189;-79
2021/05/23 10:46:10;;;;;;;3.42;1.20;;;;;19.20;100858.00;;;;10540252;28;20212;-80
2021/05/23 10:51:15;;;;;;;5.03;1.50;;;;;19.00;100849.00;;;;10547028;28;20216;-80
2021/05/23 10:56:19;;;;;;;4.82;1.50;;;;;18.50;100863.00;;;;10517384;28;20193;-79
2021/05/23 11:01:37;;;;;;;7.45;1.85;;;;;20.30;100855.00;;;;10513003;28;20603;-80
2021/05/23 11:06:40;;;;;;;6.90;1.50;;;;;20.40;100862.00;;;;10528622;28;20266;-79
2021/05/23 11:11:43;;;;;;;2.83;1.30;;;;;20.10;100869.00;;;;10538581;28;20188;-79
2021/05/23 11:16:51;;;;;;;5.25;1.33;;;;;19.30;100872.00;;;;10519436;28;20189;-79
2021/05/23 11:21:54;;;;;;;3.03;1.17;;;;;18.00;100878.00;;;;10533436;28;20192;-79
2021/05/23 11:26:56;;;;;;;2.47;1.10;;;;;18.30;100869.00;;;;10550131;28;20253;-78
2021/05/23 11:31:58;;;;;;;4.38;1.10;;;;;18.10;100865.00;;;;10548540;28;20219;-79
2021/05/23 11:37:01;;;;;;;3.90;1.33;;;;;19.00;100864.00;;;;10523022;28;20250;-79
2021/05/23 11:42:04;;;;;;;4.22;1.38;;;;;19.50;100865.00;;;;10506772;28;20606;-79
2021/05/23 11:47:06;;;;;;;5.30;1.75;;;;;19.50;100857.00;;;;10556000;28;20208;-79
2021/05/23 11:52:08;;;;;;;3.60;1.15;;;;;19.20;100863.00;;;;10511315;28;20249;-78
2021/05/23 11:57:09;;;;;;;3.30;1.20;;;;;19.80;100869.00;;;;10532017;28;20184;-79
2021/05/23 12:02:11;;;;;;;2.53;0.90;;;;;20.20;100858.00;;;;10571475;28;20227;-79
2021/05/23 12:07:13;;;;;;;3.60;1.20;;;;;21.40;100855.00;;;;10543623;28;20269;-79
2021/05/23 12:12:22;;;;;;;4.50;1.02;;;;;21.10;100857.00;;;;10517990;28;20197;-79
2021/05/23 12:17:24;;;;;;;2.85;1.10;;;;;21.80;100847.00;;;;10523223;28;20253;-79
2021/05/23 12:22:38;;;;;;;5.53;1.48;;;;;22.30;100848.00;;;;10499547;28;20200;-78
2021/05/23 12:27:48;;;;;;;3.67;1.27;;;;;22.50;100850.00;;;;10520517;28;20201;-78
2021/05/23 12:33:08;;;;;;;4.72;1.10;;;;;22.50;100848.00;;;;10517194;28;20254;-79
2021/05/23 12:38:12;;;;;;;3.42;1.17;;;;;21.20;100843.00;;;;10509987;28;20646;-79
2021/05/23 12:43:17;;;;;;;4.82;1.98;;;;;20.70;100847.00;;;;10565043;28;20192;-78
2021/05/23 12:48:19;;;;;;;2.78;1.20;;;;;19.90;100848.00;;;;10514674;28;20204;-79
2021/05/23 12:53:30;;;;;;;3.42;1.25;;;;;21.00;100853.00;;;;10555200;28;20245;-78
2021/05/23 12:58:48;;;;;;;3.50;1.40;;;;;21.60;100851.00;;;;10555118;28;20188;-79
2021/05/23 13:03:52;;;;;;;4.22;1.27;;;;;22.20;100838.00;;;;10497017;28;20276;-78
2021/05/23 13:08:59;;;;;;;4.57;1.20;;;;;24.40;100837.00;;;;10504081;28;20247;-79
2021/05/23 13:14:08;;;;;;;2.97;0.90;;;;;24.30;100824.00;;;;10507694;28;20198;-78
2021/05/23 13:19:11;;;;;;;3.22;1.10;;;;;23.00;100825.00;;;;10498059;28;20222;-78
2021/05/23 13:24:16;;;;;;;1.77;0.95;;;;;21.70;100835.00;;;;10514364;28;20192;-78
2021/05/23 13:29:18;;;;;;;3.15;1.05;;;;;20.80;100823.00;;;;10526764;28;20215;-78
2021/05/23 13:34:20;;;;;;;4.57;1.13;;;;;20.50;100826.00;;;;10516970;28;20193;-79
2021/05/23 13:39:22;;;;;;;3.65;0.90;;;;;20.10;100831.00;;;;10528438;28;20208;-78
2021/05/23 13:44:24;;;;;;;2.95;1.10;;;;;19.70;100826.00;;;;10532176;28;20193;-79
2021/05/23 13:49:26;;;;;;;3.58;1.63;;;;;20.60;100826.00;;;;10495459;28;20200;-78
2021/05/23 13:54:29;;;;;;;2.30;1.10;;;;;23.20;100829.00;;;;10533215;28;20585;-78
2021/05/23 13:59:31;;;;;;;1.40;1.20;;;;;21.50;100824.00;;;;10537457;28;20267;-79
2021/05/23 14:04:33;;;;;;;2.92;1.60;;;;;25.30;100814.00;;;;10524859;28;20544;-80
2021/05/23 14:09:35;;;;;;;2.30;1.73;;;;;26.40;100822.00;;;;10564162;28;20218;-79
2021/05/23 14:14:37;;;;;;;2.92;1.65;;;;;27.70;100808.00;;;;10521902;28;20208;-77
2021/05/23 14:19:39;;;;;;;2.80;0.95;;;;;25.90;100811.00;;;;10571469;28;20227;-80
2021/05/23 14:24:41;;;;;;;2.50;1.08;;;;;23.00;100810.00;;;;10542330;28;20188;-78
2021/05/23 14:29:43;;;;;;;2.55;1.20;;;;;23.90;100797.00;;;;10533759;28;20849;-78
2021/05/23 14:34:44;;;;;;;4.72;0.95;;;;;23.40;100795.00;;;;10512374;28;20192;-79
2021/05/23 14:39:46;;;;;;;3.60;1.35;;;;;23.90;100792.00;;;;10527026;28;20204;-79
2021/05/23 14:44:48;;;;;;;2.38;1.02;;;;;24.50;100775.00;;;;10554753;28;20200;-78
2021/05/23 14:49:54;;;;;;;2.40;1.52;;;;;22.80;100783.00;;;;10533411;28;20200;-80
2021/05/23 14:54:56;;;;;;;2.42;1.55;;;;;21.90;100784.00;;;;10553426;28;20210;-79
2021/05/23 14:59:58;;;;;;;2.95;1.35;;;;;21.90;100785.00;;;;10549822;28;20203;-79
2021/05/23 15:05:01;;;;;;;2.35;1.35;;;;;21.10;100781.00;;;;10545964;28;20223;-79
2021/05/23 15:10:05;;;;;;;3.45;1.65;;;;;21.70;100775.00;;;;10505379;28;20196;-79
2021/05/23 15:15:08;;;;;;;1.90;1.40;;;;;21.20;100761.00;;;;10534546;27;20203;-79
2021/05/23 15:20:12;;;;;;;4.85;1.40;;;;;21.70;100776.00;;;;10524843;28;20189;-79
2021/05/23 15:25:14;;;;;;;2.22;1.60;;;;;23.80;100764.00;;;;10527741;28;20203;-79
2021/05/23 15:30:25;;;;;;;2.30;1.20;;;;;22.00;100761.00;;;;10527321;28;20188;-79
2021/05/23 15:35:34;;;;;;;3.50;1.30;;;;;20.80;100758.00;;;;10547842;28;20219;-78
2021/05/23 15:40:40;;;;;;;2.25;1.50;;;;;20.80;100752.00;;;;10532998;28;20205;-78
2021/05/23 15:45:41;;;;;;;2.05;0.90;;;;;20.20;100745.00;;;;10533963;28;20204;-79
2021/05/23 15:50:43;;;;;;;3.90;0.93;;;;;20.50;100727.00;;;;10517588;27;20771;-79
2021/05/23 15:55:45;;;;;;;2.97;1.08;;;;;21.50;100731.00;;;;10541151;27;20196;-79
2021/05/23 16:00:47;;;;;;;1.85;1.10;;;;;22.80;100735.00;;;;10519916;28;20192;-79
2021/05/23 16:05:49;;;;;;;3.95;1.00;;;;;22.60;100719.00;;;;10506326;28;20583;-79
2021/05/23 16:10:51;;;;;;;3.63;0.90;;;;;22.80;100714.00;;;;10547102;27;20668;-78
2021/05/23 16:15:53;;;;;;;1.75;1.10;;;;;21.90;100706.00;;;;10565464;28;20182;-79
2021/05/23 16:20:55;;;;;;;1.40;0.77;;;;;20.40;100702.00;;;;10554612;28;20246;-79
2021/05/23 16:25:58;;;;;;;2.25;1.00;;;;;19.60;100702.00;;;;10528714;27;20729;-78
2021/05/23 16:31:03;;;;;;;1.00;0.85;;;;;19.30;100693.00;;;;10546213;28;20203;-78
2021/05/23 16:36:07;;;;;;;4.32;1.10;;;;;19.40;100694.00;;;;10569399;28;20191;-79
2021/05/23 16:41:10;;;;;;;2.03;0.77;;;;;19.80;100679.00;;;;10514979;28;20590;-78
2021/05/23 16:46:11;;;;;;;1.52;0.90;;;;;19.80;100678.00;;;;10512034;28;20212;-79
2021/05/23 16:51:13;;;;;;;2.42;0.70;;;;;19.50;100686.00;;;;10527047;28;20199;-78
2021/05/23 16:56:15;;;;;;;1.83;0.80;;;;;19.00;100670.00;;;;10519050;27;20189;-78
2021/05/23 17:01:18;;;;;;;2.33;0.80;;;;;18.90;100672.00;;;;10533773;28;20226;-79
2021/05/23 17:06:20;;;;;;;1.70;0.60;;;;;18.90;100673.00;;;;10553013;28;21080;-78
2021/05/23 17:11:21;;;;;;;1.58;0.80;;;;;18.70;100659.00;;;;10515082;28;20770;-78
2021/05/23 17:16:23;;;;;;;2.05;0.80;;;;;18.50;100662.00;;;;10514534;28;20207;-78
2021/05/23 17:21:26;;;;;;;1.63;0.88;;;;;18.00;100661.00;;;;10565318;28;20553;-79
2021/05/23 17:26:28;;;;;;;1.13;0.80;;;;;17.80;100648.00;;;;10524550;28;20607;-78
2021/05/23 17:31:30;;;;;;;3.47;0.98;;;;;17.60;100654.00;;;;11290066;22;20229;-77
2021/05/23 17:36:33;;;;;;;1.20;0.75;;;;;17.40;100653.00;;;;10536076;28;20199;-77
2021/05/23 17:41:34;;;;;;;1.77;0.80;;;;;17.40;100653.00;;;;10494606;28;20212;-78
2021/05/23 17:46:36;;;;;;;2.40;0.70;;;;;17.30;100656.00;;;;10510448;28;20753;-78
2021/05/23 17:51:38;;;;;;;2.13;0.90;;;;;17.40;100640.00;;;;10541803;28;20857;-77
2021/05/23 17:56:40;;;;;;;3.47;0.83;;;;;17.50;100639.00;;;;10532084;28;20208;-77
2021/05/23 18:01:43;;;;;;;1.90;0.70;;;;;17.40;100643.00;;;;10490885;28;20201;-77
2021/05/23 18:06:45;;;;;;;2.15;0.80;;;;;17.00;100642.00;;;;10539468;27;21117;-77
2021/05/23 18:11:47;;;;;;;4.23;0.97;;;;;16.60;100637.00;;;;10546906;27;20654;-77
2021/05/23 18:16:49;;;;;;;1.23;0.80;;;;;16.20;100642.00;;;;10542089;28;20225;-77
2021/05/23 18:21:51;;;;;;;0.67;0.60;;;;;15.90;100631.00;;;;10525116;28;20222;-77
2021/05/23 18:26:53;;;;;;;4.73;0.90;;;;;15.80;100637.00;;;;10547423;28;20220;-77
2021/05/23 18:31:55;;;;;;;1.03;0.70;;;;;15.70;100626.00;;;;10546364;28;20212;-77
2021/05/23 18:36:57;;;;;;;2.50;0.90;;;;;15.50;100639.00;;;;10503331;28;20211;-77
2021/05/23 18:42:00;;;;;;;2.40;0.87;;;;;15.40;100640.00;;;;10451378;28;20213;-77
2021/05/23 18:47:02;;;;;;;0.80;0.80;;;;;15.20;100633.00;;;;10500400;28;20287;-77
2021/05/23 18:52:04;;;;;;;2.60;0.80;;;;;15.20;100626.00;;;;10474476;28;20206;-77
2021/05/23 18:57:07;;;;;;;1.33;0.80;;;;;15.10;100628.00;;;;10509223;28;20263;-77
2021/05/23 19:02:09;;;;;;;1.57;0.80;;;;;15.00;100631.00;;;;10464326;28;20197;-77
2021/05/23 19:07:11;;;;;;;1.87;0.80;;;;;15.00;100621.00;;;;10510714;28;20744;-77
2021/05/23 19:12:13;;;;;;;1.13;0.70;;;;;14.90;100628.00;;;;10454921;28;20196;-77
2021/05/23 19:17:14;;;;;;;2.30;0.80;;;;;14.80;100631.00;;;;10500688;28;20216;-77
2021/05/23 19:22:16;;;;;;;1.90;0.87;;;;;14.80;100634.00;;;;10489794;28;20238;-77
2021/05/23 19:27:18;;;;;;;3.23;1.10;;;;;14.70;100620.00;;;;10458802;28;20217;-77
2021/05/23 19:32:25;;;;;;;3.37;0.90;;;;;14.60;100620.00;;;;10505788;28;20262;-78
2021/05/23 19:37:27;;;;;;;2.80;0.90;;;;;14.60;100618.00;;;;10481641;28;20201;-77
2021/05/23 19:42:29;;;;;;;3.50;1.00;;;;;14.50;100613.00;;;;10480810;28;20214;-77
2021/05/23 19:47:31;;;;;;;2.30;0.83;;;;;14.50;100612.00;;;;10485490;28;20217;-77
2021/05/23 19:52:34;;;;;;;2.10;0.90;;;;;14.40;100614.00;;;;10501333;28;20231;-77
2021/05/23 19:57:35;;;;;;;1.40;1.00;;;;;14.40;100617.00;;;;10483898;28;20244;-78
2021/05/23 20:02:38;;;;;;;3.20;1.03;;;;;14.30;100614.00;;;;10504814;28;20287;-77
2021/05/23 20:07:40;;;;;;;1.47;0.90;;;;;14.30;100620.00;;;;10498113;28;20214;-78
2021/05/23 20:12:43;;;;;;;1.97;1.47;;;;;14.30;100620.00;;;;10494558;28;20202;-77
2021/05/23 20:17:46;;;;;;;1.80;0.97;;;;;14.30;100613.00;;;;10489412;28;20280;-77
2021/05/23 20:22:48;;;;;;;2.77;0.80;;;;;14.30;100620.00;;;;10493115;28;20230;-77
2021/05/23 20:27:52;;;;;;;2.17;0.70;;;;;14.20;100642.00;;;;10484128;28;20231;-77
2021/05/23 20:32:59;;;;;;;2.53;0.93;;;;;14.20;100639.00;;;;10511065;28;20218;-77
2021/05/23 20:38:02;;;;;;;2.20;1.37;;;;;13.60;100631.00;;;;10470134;28;20227;-77
2021/05/23 20:43:06;;;;;;;2.57;1.40;;;;;12.70;100607.00;;;;10488764;28;20204;-78
2021/05/23 20:48:08;;;;;;;2.40;1.00;;;;;12.20;100593.00;;;;10481897;28;20248;-78
2021/05/23 20:53:11;;;;;;;3.23;1.30;;;;;12.00;100591.00;;;;10438116;28;20219;-77
2021/05/23 20:58:15;;;;;;;3.13;1.27;;;;;11.90;100589.00;;;;10491985;28;20659;-78
2021/05/23 21:03:17;;;;;;;3.17;1.50;;;;;11.90;100586.00;;;;10476891;28;20246;-77
2021/05/23 21:08:18;;;;;;;5.47;2.70;;;;;11.90;100577.00;;;;10476965;28;20315;-77
2021/05/23 21:13:20;;;;;;;4.70;2.83;;;;;12.00;100568.00;;;;10479315;28;20216;-77
2021/05/23 21:18:22;;;;;;;6.50;1.77;;;;;11.90;100570.00;;;;10485723;28;20200;-77
2021/05/23 21:23:24;;;;;;;9.53;4.87;;;;;12.00;100576.00;;;;10494100;28;20217;-77
2021/05/23 21:28:26;;;;;;;4.50;2.10;;;;;12.00;100562.00;;;;10496277;28;20247;-77
2021/05/23 21:33:28;;;;;;;5.37;1.40;;;;;12.10;100563.00;;;;10496796;28;20208;-77
2021/05/23 21:38:30;;;;;;;4.10;1.23;;;;;12.20;100563.00;;;;10497563;28;20779;-78
2021/05/23 21:43:32;;;;;;;2.10;1.10;;;;;12.30;100554.00;;;;10496905;28;20873;-78
2021/05/23 21:48:34;;;;;;;3.87;1.17;;;;;12.40;100548.00;;;;10472785;28;20213;-77
2021/05/23 21:53:36;;;;;;;3.93;1.63;;;;;12.50;100537.00;;;;10476959;28;20207;-78
2021/05/23 21:58:38;;;;;;;3.87;1.00;;;;;12.50;100542.00;;;;10448189;28;20587;-79
2021/05/23 22:03:41;;;;;;;4.00;1.33;;;;;12.50;100537.00;;;;10465155;28;20201;-78
2021/05/23 22:08:43;;;;;;;4.07;1.03;;;;;12.60;100523.00;;;;10445779;28;20230;-78
2021/05/23 22:13:45;;;;;;;4.93;0.90;;;;;12.60;100520.00;;;;10448677;28;20259;-78
2021/05/23 22:18:47;;;;;;;2.60;1.07;;;;;12.70;100515.00;;;;10465285;28;20618;-78
2021/05/23 22:23:49;;;;;;;5.57;1.17;;;;;12.70;100511.00;;;;10434774;28;20228;-78
2021/05/23 22:28:51;;;;;;;1.73;1.03;;;;;12.70;100509.00;;;;10489962;28;20292;-78
2021/05/23 22:33:52;;;;;;;4.47;1.30;;;;;12.80;100516.00;;;;10496938;28;20220;-78
2021/05/23 22:38:54;;;;;;;4.03;1.20;;;;;12.90;100509.00;;;;10494773;28;20287;-78
2021/05/23 22:43:58;;;;;;;3.60;1.10;;;;;12.90;100511.00;;;;10498786;28;20202;-78
2021/05/23 22:48:59;;;;;;;1.77;0.83;;;;;12.90;100503.00;;;;10491456;28;20283;-77
2021/05/23 22:54:02;;;;;;;3.80;1.00;;;;;12.90;100512.00;;;;10496312;28;20205;-78
2021/05/23 22:59:04;;;;;;;3.27;1.10;;;;;12.90;100500.00;;;;10513508;28;20768;-78
2021/05/23 23:04:08;;;;;;;4.43;0.97;;;;;13.00;100500.00;;;;10530933;28;20189;-78
2021/05/23 23:09:10;;;;;;;2.00;1.10;;;;;13.00;100493.00;;;;10499444;28;20213;-78
2021/05/23 23:14:12;;;;;;;2.77;1.07;;;;;13.00;100481.00;;;;10514011;28;20203;-78
2021/05/23 23:19:15;;;;;;;1.80;0.80;;;;;13.00;100470.00;;;;10498890;28;20643;-78
2021/05/23 23:24:17;;;;;;;3.47;0.90;;;;;13.00;100483.00;;;;10482186;28;20223;-78
2021/05/23 23:29:19;;;;;;;4.27;1.00;;;;;13.00;100477.00;;;;10493653;28;20702;-78
2021/05/23 23:34:21;;;;;;;3.23;1.00;;;;;13.00;100479.00;;;;10475458;28;20229;-78
2021/05/23 23:39:23;;;;;;;1.17;0.80;;;;;13.00;100462.00;;;;10511350;28;20646;-78
2021/05/23 23:44:25;;;;;;;2.07;0.90;;;;;13.10;100465.00;;;;10511577;28;20185;-78
2021/05/23 23:49:26;;;;;;;2.83;0.83;;;;;13.10;100456.00;;;;10512078;28;20224;-78
2021/05/23 23:54:28;;;;;;;3.57;0.83;;;;;13.10;100445.00;;;;10509502;28;20197;-78
2021/05/23 23:59:30;;;;;;;3.10;1.10;;;;;13.10;100437.00;;;;10511249;28;20578;-78
